sensor_id;sensor_type;location;lat;lon;timestamp;temperature;humidity
77865;DHT22;67061;48.524;9.040;2023-03-05T00:00:10;1.00;87.10
77865;DHT22;67061;48.524;9.040;2023-03-05T00:02:37;1.00;86.90
77865;DHT22;67061;48.524;9.040;2023-03-05T00:05:04;1.00;87.00
77865;DHT22;67061;48.524;9.040;2023-03-05T00:07:32;1.00;87.00
77865;DHT22;67061;48.524;9.040;2023-03-05T00:10:02;1.00;87.00
77865;DHT22;67061;48.524;9.040;2023-03-05T00:12:29;1.00;87.10
77865;DHT22;67061;48.524;9.040;2023-03-05T00:14:56;1.00;87.00
77865;DHT22;67061;48.524;9.040;2023-03-05T00:17:23;1.00;87.20
77865;DHT22;67061;48.524;9.040;2023-03-05T00:19:50;1.00;87.30
77865;DHT22;67061;48.524;9.040;2023-03-05T00:22:17;1.00;87.30
77865;DHT22;67061;48.524;9.040;2023-03-05T00:24:44;1.00;87.30
77865;DHT22;67061;48.524;9.040;2023-03-05T00:27:12;0.90;87.60
77865;DHT22;67061;48.524;9.040;2023-03-05T00:29:39;0.90;87.70
77865;DHT22;67061;48.524;9.040;2023-03-05T00:32:06;0.90;87.70
77865;DHT22;67061;48.524;9.040;2023-03-05T00:34:33;0.90;87.70
77865;DHT22;67061;48.524;9.040;2023-03-05T00:37:01;0.90;87.30
77865;DHT22;67061;48.524;9.040;2023-03-05T00:39:28;0.80;87.50
77865;DHT22;67061;48.524;9.040;2023-03-05T00:41:55;0.80;88.10
77865;DHT22;67061;48.524;9.040;2023-03-05T00:44:24;0.80;88.00
77865;DHT22;67061;48.524;9.040;2023-03-05T00:46:50;0.80;87.40
77865;DHT22;67061;48.524;9.040;2023-03-05T00:49:17;0.80;87.60
77865;DHT22;67061;48.524;9.040;2023-03-05T00:51:44;0.80;87.30
77865;DHT22;67061;48.524;9.040;2023-03-05T00:54:11;0.80;87.20
77865;DHT22;67061;48.524;9.040;2023-03-05T00:56:38;0.80;87.40
77865;DHT22;67061;48.524;9.040;2023-03-05T00:59:05;0.80;86.40
77865;DHT22;67061;48.524;9.040;2023-03-05T01:01:33;0.90;86.60
77865;DHT22;67061;48.524;9.040;2023-03-05T01:04:00;0.90;87.00
77865;DHT22;67061;48.524;9.040;2023-03-05T01:06:27;1.00;86.90
77865;DHT22;67061;48.524;9.040;2023-03-05T01:08:55;1.00;87.10
77865;DHT22;67061;48.524;9.040;2023-03-05T01:11:22;1.00;87.20
77865;DHT22;67061;48.524;9.040;2023-03-05T01:13:49;1.00;87.10
77865;DHT22;67061;48.524;9.040;2023-03-05T01:16:16;1.00;87.20
77865;DHT22;67061;48.524;9.040;2023-03-05T01:18:44;1.00;87.30
77865;DHT22;67061;48.524;9.040;2023-03-05T01:21:11;1.00;87.10
77865;DHT22;67061;48.524;9.040;2023-03-05T01:23:39;1.00;87.10
77865;DHT22;67061;48.524;9.040;2023-03-05T01:26:06;1.00;87.10
77865;DHT22;67061;48.524;9.040;2023-03-05T01:28:34;1.00;87.10
77865;DHT22;67061;48.524;9.040;2023-03-05T01:31:06;1.00;87.10
77865;DHT22;67061;48.524;9.040;2023-03-05T01:33:33;1.00;87.00
77865;DHT22;67061;48.524;9.040;2023-03-05T01:36:05;1.00;87.00
77865;DHT22;67061;48.524;9.040;2023-03-05T01:38:32;1.00;87.10
77865;DHT22;67061;48.524;9.040;2023-03-05T01:40:58;1.00;86.90
77865;DHT22;67061;48.524;9.040;2023-03-05T01:43:27;1.00;87.10
77865;DHT22;67061;48.524;9.040;2023-03-05T01:49:03;1.00;87.40
77865;DHT22;67061;48.524;9.040;2023-03-05T01:51:37;0.90;87.20
77865;DHT22;67061;48.524;9.040;2023-03-05T01:54:06;0.90;87.50
77865;DHT22;67061;48.524;9.040;2023-03-05T01:56:34;0.90;87.50
77865;DHT22;67061;48.524;9.040;2023-03-05T01:59:03;0.80;87.60
77865;DHT22;67061;48.524;9.040;2023-03-05T02:01:32;0.80;87.80
77865;DHT22;67061;48.524;9.040;2023-03-05T02:04:02;0.90;87.60
77865;DHT22;67061;48.524;9.040;2023-03-05T02:06:29;0.90;87.50
77865;DHT22;67061;48.524;9.040;2023-03-05T02:08:58;0.90;87.50
77865;DHT22;67061;48.524;9.040;2023-03-05T02:11:25;0.90;87.70
77865;DHT22;67061;48.524;9.040;2023-03-05T02:13:52;0.90;87.70
77865;DHT22;67061;48.524;9.040;2023-03-05T02:16:19;0.90;87.50
77865;DHT22;67061;48.524;9.040;2023-03-05T02:18:46;0.90;87.80
77865;DHT22;67061;48.524;9.040;2023-03-05T02:21:26;0.80;87.90
77865;DHT22;67061;48.524;9.040;2023-03-05T02:23:53;0.90;88.00
77865;DHT22;67061;48.524;9.040;2023-03-05T02:26:24;0.80;87.70
77865;DHT22;67061;48.524;9.040;2023-03-05T02:28:54;0.80;87.80
77865;DHT22;67061;48.524;9.040;2023-03-05T02:31:24;0.90;88.10
77865;DHT22;67061;48.524;9.040;2023-03-05T02:33:52;0.90;87.90
77865;DHT22;67061;48.524;9.040;2023-03-05T02:36:22;1.00;87.30
77865;DHT22;67061;48.524;9.040;2023-03-05T02:38:49;0.90;87.50
77865;DHT22;67061;48.524;9.040;2023-03-05T02:41:17;0.90;87.70
77865;DHT22;67061;48.524;9.040;2023-03-05T02:43:44;0.90;87.30
77865;DHT22;67061;48.524;9.040;2023-03-05T02:46:11;0.90;87.50
77865;DHT22;67061;48.524;9.040;2023-03-05T02:48:38;0.90;87.60
77865;DHT22;67061;48.524;9.040;2023-03-05T02:51:06;1.00;87.60
77865;DHT22;67061;48.524;9.040;2023-03-05T02:53:34;0.90;87.90
77865;DHT22;67061;48.524;9.040;2023-03-05T02:56:01;0.90;88.10
77865;DHT22;67061;48.524;9.040;2023-03-05T02:58:29;0.80;88.20
77865;DHT22;67061;48.524;9.040;2023-03-05T03:00:55;0.80;88.30
77865;DHT22;67061;48.524;9.040;2023-03-05T03:03:22;0.80;88.60
77865;DHT22;67061;48.524;9.040;2023-03-05T03:05:49;0.80;88.50
77865;DHT22;67061;48.524;9.040;2023-03-05T03:08:16;0.80;88.60
77865;DHT22;67061;48.524;9.040;2023-03-05T03:10:44;0.80;88.70
77865;DHT22;67061;48.524;9.040;2023-03-05T03:13:11;0.80;88.50
77865;DHT22;67061;48.524;9.040;2023-03-05T03:15:38;0.80;88.70
77865;DHT22;67061;48.524;9.040;2023-03-05T03:18:06;0.90;88.50
77865;DHT22;67061;48.524;9.040;2023-03-05T03:20:32;0.90;88.30
77865;DHT22;67061;48.524;9.040;2023-03-05T03:23:00;0.90;88.30
77865;DHT22;67061;48.524;9.040;2023-03-05T03:25:27;0.90;88.40
77865;DHT22;67061;48.524;9.040;2023-03-05T03:27:55;1.00;88.30
77865;DHT22;67061;48.524;9.040;2023-03-05T03:30:22;0.90;88.30
77865;DHT22;67061;48.524;9.040;2023-03-05T03:32:50;0.90;88.30
77865;DHT22;67061;48.524;9.040;2023-03-05T03:35:17;0.90;88.40
77865;DHT22;67061;48.524;9.040;2023-03-05T03:37:44;0.90;88.60
77865;DHT22;67061;48.524;9.040;2023-03-05T03:40:12;0.90;88.60
77865;DHT22;67061;48.524;9.040;2023-03-05T03:42:39;0.80;88.60
77865;DHT22;67061;48.524;9.040;2023-03-05T03:45:08;0.80;89.10
77865;DHT22;67061;48.524;9.040;2023-03-05T03:47:35;0.80;89.10
77865;DHT22;67061;48.524;9.040;2023-03-05T03:50:02;0.80;89.40
77865;DHT22;67061;48.524;9.040;2023-03-05T03:52:30;0.80;89.70
77865;DHT22;67061;48.524;9.040;2023-03-05T03:54:57;0.80;89.70
77865;DHT22;67061;48.524;9.040;2023-03-05T03:57:27;0.80;89.50
77865;DHT22;67061;48.524;9.040;2023-03-05T03:59:54;0.80;89.60
77865;DHT22;67061;48.524;9.040;2023-03-05T04:02:23;0.80;89.60
77865;DHT22;67061;48.524;9.040;2023-03-05T04:04:50;0.80;89.50
77865;DHT22;67061;48.524;9.040;2023-03-05T04:07:17;0.80;89.70
77865;DHT22;67061;48.524;9.040;2023-03-05T04:09:44;0.80;89.50
77865;DHT22;67061;48.524;9.040;2023-03-05T04:12:11;0.80;89.40
77865;DHT22;67061;48.524;9.040;2023-03-05T04:14:43;0.80;89.40
77865;DHT22;67061;48.524;9.040;2023-03-05T04:17:11;0.80;89.60
77865;DHT22;67061;48.524;9.040;2023-03-05T04:19:40;0.80;90.00
77865;DHT22;67061;48.524;9.040;2023-03-05T04:22:09;0.80;90.20
77865;DHT22;67061;48.524;9.040;2023-03-05T04:24:36;0.80;90.10
77865;DHT22;67061;48.524;9.040;2023-03-05T04:27:04;0.80;90.20
77865;DHT22;67061;48.524;9.040;2023-03-05T04:29:31;0.80;89.70
77865;DHT22;67061;48.524;9.040;2023-03-05T04:31:58;0.80;89.60
77865;DHT22;67061;48.524;9.040;2023-03-05T04:34:25;0.80;89.40
77865;DHT22;67061;48.524;9.040;2023-03-05T04:36:53;0.80;89.20
77865;DHT22;67061;48.524;9.040;2023-03-05T04:39:20;0.80;89.30
77865;DHT22;67061;48.524;9.040;2023-03-05T04:41:47;0.80;89.10
77865;DHT22;67061;48.524;9.040;2023-03-05T04:44:14;0.80;89.30
77865;DHT22;67061;48.524;9.040;2023-03-05T04:46:42;0.80;89.20
77865;DHT22;67061;48.524;9.040;2023-03-05T04:49:09;0.80;89.30
77865;DHT22;67061;48.524;9.040;2023-03-05T04:51:36;0.90;89.10
77865;DHT22;67061;48.524;9.040;2023-03-05T04:54:04;1.00;89.00
77865;DHT22;67061;48.524;9.040;2023-03-05T04:56:31;1.00;89.20
77865;DHT22;67061;48.524;9.040;2023-03-05T04:58:59;0.90;89.20
77865;DHT22;67061;48.524;9.040;2023-03-05T05:01:26;1.00;89.30
77865;DHT22;67061;48.524;9.040;2023-03-05T05:03:53;1.00;89.40
77865;DHT22;67061;48.524;9.040;2023-03-05T05:06:20;1.00;89.30
77865;DHT22;67061;48.524;9.040;2023-03-05T05:08:47;0.90;89.40
77865;DHT22;67061;48.524;9.040;2023-03-05T05:11:15;1.00;89.40
77865;DHT22;67061;48.524;9.040;2023-03-05T05:13:42;1.00;89.60
77865;DHT22;67061;48.524;9.040;2023-03-05T05:16:09;0.90;89.40
77865;DHT22;67061;48.524;9.040;2023-03-05T05:18:36;1.00;89.60
77865;DHT22;67061;48.524;9.040;2023-03-05T05:21:07;0.90;89.20
77865;DHT22;67061;48.524;9.040;2023-03-05T05:23:34;0.90;89.60
77865;DHT22;67061;48.524;9.040;2023-03-05T05:26:03;0.90;89.40
77865;DHT22;67061;48.524;9.040;2023-03-05T05:28:32;0.90;89.50
77865;DHT22;67061;48.524;9.040;2023-03-05T05:30:59;0.90;89.40
77865;DHT22;67061;48.524;9.040;2023-03-05T05:33:26;0.90;89.40
77865;DHT22;67061;48.524;9.040;2023-03-05T05:35:53;1.00;89.20
77865;DHT22;67061;48.524;9.040;2023-03-05T05:38:20;1.00;89.00
77865;DHT22;67061;48.524;9.040;2023-03-05T05:40:47;1.00;89.40
77865;DHT22;67061;48.524;9.040;2023-03-05T05:43:14;1.00;89.50
77865;DHT22;67061;48.524;9.040;2023-03-05T05:45:42;1.00;89.50
77865;DHT22;67061;48.524;9.040;2023-03-05T05:48:09;1.00;89.30
77865;DHT22;67061;48.524;9.040;2023-03-05T05:50:36;1.00;89.60
77865;DHT22;67061;48.524;9.040;2023-03-05T05:53:03;1.00;89.60
77865;DHT22;67061;48.524;9.040;2023-03-05T05:55:30;0.90;90.00
77865;DHT22;67061;48.524;9.040;2023-03-05T05:57:57;0.80;90.60
77865;DHT22;67061;48.524;9.040;2023-03-05T06:00:24;0.90;90.40
77865;DHT22;67061;48.524;9.040;2023-03-05T06:02:52;0.90;90.60
77865;DHT22;67061;48.524;9.040;2023-03-05T06:05:19;0.90;90.70
77865;DHT22;67061;48.524;9.040;2023-03-05T06:07:46;1.00;90.50
77865;DHT22;67061;48.524;9.040;2023-03-05T06:10:13;0.90;90.70
77865;DHT22;67061;48.524;9.040;2023-03-05T06:12:40;0.80;91.00
77865;DHT22;67061;48.524;9.040;2023-03-05T06:15:08;0.80;91.20
77865;DHT22;67061;48.524;9.040;2023-03-05T06:17:35;0.80;91.50
77865;DHT22;67061;48.524;9.040;2023-03-05T06:20:05;0.80;91.40
77865;DHT22;67061;48.524;9.040;2023-03-05T06:22:35;0.80;91.50
77865;DHT22;67061;48.524;9.040;2023-03-05T06:25:02;0.80;91.60
77865;DHT22;67061;48.524;9.040;2023-03-05T06:27:29;0.80;91.60
77865;DHT22;67061;48.524;9.040;2023-03-05T06:29:56;0.80;91.70
77865;DHT22;67061;48.524;9.040;2023-03-05T06:32:23;0.80;91.70
77865;DHT22;67061;48.524;9.040;2023-03-05T06:34:50;0.80;91.70
77865;DHT22;67061;48.524;9.040;2023-03-05T06:37:19;0.90;91.70
77865;DHT22;67061;48.524;9.040;2023-03-05T06:39:46;0.90;91.50
77865;DHT22;67061;48.524;9.040;2023-03-05T06:42:13;0.90;91.50
77865;DHT22;67061;48.524;9.040;2023-03-05T06:44:42;1.00;91.50
77865;DHT22;67061;48.524;9.040;2023-03-05T06:47:09;1.00;91.20
77865;DHT22;67061;48.524;9.040;2023-03-05T06:49:37;1.00;91.20
77865;DHT22;67061;48.524;9.040;2023-03-05T06:52:05;1.00;91.00
77865;DHT22;67061;48.524;9.040;2023-03-05T06:54:33;1.00;91.00
77865;DHT22;67061;48.524;9.040;2023-03-05T06:57:00;1.00;91.20
77865;DHT22;67061;48.524;9.040;2023-03-05T06:59:27;1.00;91.10
77865;DHT22;67061;48.524;9.040;2023-03-05T07:01:54;1.00;91.20
77865;DHT22;67061;48.524;9.040;2023-03-05T07:04:21;1.00;91.20
77865;DHT22;67061;48.524;9.040;2023-03-05T07:06:48;1.00;91.40
77865;DHT22;67061;48.524;9.040;2023-03-05T07:09:15;1.00;91.60
77865;DHT22;67061;48.524;9.040;2023-03-05T07:11:44;1.00;91.50
77865;DHT22;67061;48.524;9.040;2023-03-05T07:14:11;1.00;91.40
77865;DHT22;67061;48.524;9.040;2023-03-05T07:16:38;1.00;91.40
77865;DHT22;67061;48.524;9.040;2023-03-05T07:19:05;1.00;91.60
77865;DHT22;67061;48.524;9.040;2023-03-05T07:21:33;1.00;91.20
77865;DHT22;67061;48.524;9.040;2023-03-05T07:24:02;1.10;91.20
77865;DHT22;67061;48.524;9.040;2023-03-05T07:26:30;1.10;90.90
77865;DHT22;67061;48.524;9.040;2023-03-05T07:28:59;1.10;90.90
77865;DHT22;67061;48.524;9.040;2023-03-05T07:31:27;1.20;90.70
77865;DHT22;67061;48.524;9.040;2023-03-05T07:33:57;1.20;90.20
77865;DHT22;67061;48.524;9.040;2023-03-05T07:36:24;1.20;90.30
77865;DHT22;67061;48.524;9.040;2023-03-05T07:38:51;1.20;90.10
77865;DHT22;67061;48.524;9.040;2023-03-05T07:41:18;1.20;89.80
77865;DHT22;67061;48.524;9.040;2023-03-05T07:43:47;1.20;90.00
77865;DHT22;67061;48.524;9.040;2023-03-05T07:46:17;1.30;90.30
77865;DHT22;67061;48.524;9.040;2023-03-05T07:48:44;1.30;90.00
77865;DHT22;67061;48.524;9.040;2023-03-05T07:51:13;1.40;90.00
77865;DHT22;67061;48.524;9.040;2023-03-05T07:53:40;1.40;89.90
77865;DHT22;67061;48.524;9.040;2023-03-05T07:56:08;1.40;89.60
77865;DHT22;67061;48.524;9.040;2023-03-05T07:58:35;1.40;89.40
77865;DHT22;67061;48.524;9.040;2023-03-05T08:01:02;1.30;89.80
77865;DHT22;67061;48.524;9.040;2023-03-05T08:03:30;1.40;90.20
77865;DHT22;67061;48.524;9.040;2023-03-05T08:05:57;1.40;89.70
77865;DHT22;67061;48.524;9.040;2023-03-05T08:08:24;1.40;89.60
77865;DHT22;67061;48.524;9.040;2023-03-05T08:10:51;1.50;89.70
77865;DHT22;67061;48.524;9.040;2023-03-05T08:13:18;1.50;89.20
77865;DHT22;67061;48.524;9.040;2023-03-05T08:15:45;1.50;89.10
77865;DHT22;67061;48.524;9.040;2023-03-05T08:18:12;1.50;89.10
77865;DHT22;67061;48.524;9.040;2023-03-05T08:20:41;1.50;89.70
77865;DHT22;67061;48.524;9.040;2023-03-05T08:23:08;1.70;89.40
77865;DHT22;67061;48.524;9.040;2023-03-05T08:25:35;1.70;88.60
77865;DHT22;67061;48.524;9.040;2023-03-05T08:28:03;1.60;88.80
77865;DHT22;67061;48.524;9.040;2023-03-05T08:30:30;1.70;88.70
77865;DHT22;67061;48.524;9.040;2023-03-05T08:32:57;1.80;89.10
77865;DHT22;67061;48.524;9.040;2023-03-05T08:35:24;1.80;88.20
77865;DHT22;67061;48.524;9.040;2023-03-05T08:37:52;1.80;87.70
77865;DHT22;67061;48.524;9.040;2023-03-05T08:40:19;1.90;87.40
77865;DHT22;67061;48.524;9.040;2023-03-05T08:42:46;2.00;87.50
77865;DHT22;67061;48.524;9.040;2023-03-05T08:45:13;1.90;86.70
77865;DHT22;67061;48.524;9.040;2023-03-05T08:47:40;2.00;87.00
77865;DHT22;67061;48.524;9.040;2023-03-05T08:50:08;2.00;87.00
77865;DHT22;67061;48.524;9.040;2023-03-05T08:52:35;2.10;87.00
77865;DHT22;67061;48.524;9.040;2023-03-05T08:55:04;2.20;86.30
77865;DHT22;67061;48.524;9.040;2023-03-05T08:57:31;2.30;86.00
77865;DHT22;67061;48.524;9.040;2023-03-05T08:59:57;2.30;86.10
77865;DHT22;67061;48.524;9.040;2023-03-05T09:02:24;2.40;85.80
77865;DHT22;67061;48.524;9.040;2023-03-05T09:04:51;2.50;84.80
77865;DHT22;67061;48.524;9.040;2023-03-05T09:07:18;2.50;85.30
77865;DHT22;67061;48.524;9.040;2023-03-05T09:09:45;2.50;85.00
77865;DHT22;67061;48.524;9.040;2023-03-05T09:12:13;2.70;84.30
77865;DHT22;67061;48.524;9.040;2023-03-05T09:14:41;2.70;84.50
77865;DHT22;67061;48.524;9.040;2023-03-05T09:17:08;2.70;83.70
77865;DHT22;67061;48.524;9.040;2023-03-05T09:19:35;2.80;83.80
77865;DHT22;67061;48.524;9.040;2023-03-05T09:22:02;2.80;83.20
77865;DHT22;67061;48.524;9.040;2023-03-05T09:24:29;2.80;83.20
77865;DHT22;67061;48.524;9.040;2023-03-05T09:26:57;2.80;83.60
77865;DHT22;67061;48.524;9.040;2023-03-05T09:29:26;2.90;83.50
77865;DHT22;67061;48.524;9.040;2023-03-05T09:31:55;2.90;83.20
77865;DHT22;67061;48.524;9.040;2023-03-05T09:34:22;3.00;83.30
77865;DHT22;67061;48.524;9.040;2023-03-05T09:36:50;3.00;83.00
77865;DHT22;67061;48.524;9.040;2023-03-05T09:39:16;3.10;83.40
77865;DHT22;67061;48.524;9.040;2023-03-05T09:42:01;3.10;82.60
77865;DHT22;67061;48.524;9.040;2023-03-05T09:44:35;3.10;82.80
77865;DHT22;67061;48.524;9.040;2023-03-05T09:47:19;3.20;83.70
77865;DHT22;67061;48.524;9.040;2023-03-05T09:49:56;3.30;83.20
77865;DHT22;67061;48.524;9.040;2023-03-05T09:52:42;3.40;82.00
77865;DHT22;67061;48.524;9.040;2023-03-05T09:55:16;3.50;81.60
77865;DHT22;67061;48.524;9.040;2023-03-05T09:57:50;3.50;81.10
77865;DHT22;67061;48.524;9.040;2023-03-05T10:00:37;3.50;81.70
77865;DHT22;67061;48.524;9.040;2023-03-05T10:03:06;3.50;82.10
77865;DHT22;67061;48.524;9.040;2023-03-05T10:05:47;3.70;81.30
77865;DHT22;67061;48.524;9.040;2023-03-05T10:08:20;3.80;80.50
77865;DHT22;67061;48.524;9.040;2023-03-05T10:10:50;3.80;81.20
77865;DHT22;67061;48.524;9.040;2023-03-05T10:13:21;3.90;80.10
77865;DHT22;67061;48.524;9.040;2023-03-05T10:15:57;4.00;80.50
77865;DHT22;67061;48.524;9.040;2023-03-05T10:18:32;4.10;79.40
77865;DHT22;67061;48.524;9.040;2023-03-05T10:21:09;4.00;78.90
77865;DHT22;67061;48.524;9.040;2023-03-05T10:23:59;4.10;78.90
77865;DHT22;67061;48.524;9.040;2023-03-05T10:26:43;4.40;78.40
77865;DHT22;67061;48.524;9.040;2023-03-05T10:29:21;4.30;77.00
77865;DHT22;67061;48.524;9.040;2023-03-05T10:32:08;4.30;77.10
77865;DHT22;67061;48.524;9.040;2023-03-05T10:34:53;4.30;77.20
77865;DHT22;67061;48.524;9.040;2023-03-05T10:40:31;4.50;76.30
77865;DHT22;67061;48.524;9.040;2023-03-05T10:43:10;4.50;76.30
77865;DHT22;67061;48.524;9.040;2023-03-05T10:45:42;4.50;75.80
77865;DHT22;67061;48.524;9.040;2023-03-05T10:48:27;4.50;75.50
77865;DHT22;67061;48.524;9.040;2023-03-05T10:50:58;4.50;76.10
77865;DHT22;67061;48.524;9.040;2023-03-05T10:53:28;4.50;75.60
77865;DHT22;67061;48.524;9.040;2023-03-05T10:56:00;4.50;75.70
77865;DHT22;67061;48.524;9.040;2023-03-05T10:58:28;4.80;75.20
77865;DHT22;67061;48.524;9.040;2023-03-05T11:01:01;4.90;74.20
77865;DHT22;67061;48.524;9.040;2023-03-05T11:03:54;4.90;74.20
77865;DHT22;67061;48.524;9.040;2023-03-05T11:06:33;4.90;74.10
77865;DHT22;67061;48.524;9.040;2023-03-05T11:09:19;4.90;74.30
77865;DHT22;67061;48.524;9.040;2023-03-05T11:12:03;5.00;73.20
77865;DHT22;67061;48.524;9.040;2023-03-05T11:14:33;5.00;74.20
77865;DHT22;67061;48.524;9.040;2023-03-05T11:17:07;5.00;72.50
77865;DHT22;67061;48.524;9.040;2023-03-05T11:19:49;5.00;72.60
77865;DHT22;67061;48.524;9.040;2023-03-05T11:22:18;5.10;72.70
77865;DHT22;67061;48.524;9.040;2023-03-05T11:25:04;5.00;71.40
77865;DHT22;67061;48.524;9.040;2023-03-05T11:27:36;4.70;73.10
77865;DHT22;67061;48.524;9.040;2023-03-05T11:30:12;4.80;73.10
77865;DHT22;67061;48.524;9.040;2023-03-05T11:32:43;4.90;73.80
77865;DHT22;67061;48.524;9.040;2023-03-05T11:35:29;5.10;73.10
77865;DHT22;67061;48.524;9.040;2023-03-05T11:38:00;5.20;72.60
77865;DHT22;67061;48.524;9.040;2023-03-05T11:40:29;5.10;70.00
77865;DHT22;67061;48.524;9.040;2023-03-05T11:42:57;5.00;69.70
77865;DHT22;67061;48.524;9.040;2023-03-05T11:45:25;4.90;69.90
77865;DHT22;67061;48.524;9.040;2023-03-05T11:47:55;4.70;69.90
77865;DHT22;67061;48.524;9.040;2023-03-05T11:50:26;4.60;71.40
77865;DHT22;67061;48.524;9.040;2023-03-05T11:52:56;4.70;71.40
77865;DHT22;67061;48.524;9.040;2023-03-05T11:55:27;4.70;70.80
77865;DHT22;67061;48.524;9.040;2023-03-05T11:58:03;4.60;71.70
77865;DHT22;67061;48.524;9.040;2023-03-05T12:00:44;4.60;72.10
77865;DHT22;67061;48.524;9.040;2023-03-05T12:03:14;4.60;71.50
77865;DHT22;67061;48.524;9.040;2023-03-05T12:05:46;4.60;71.30
77865;DHT22;67061;48.524;9.040;2023-03-05T12:08:15;4.60;70.70
77865;DHT22;67061;48.524;9.040;2023-03-05T12:10:46;4.50;70.50
77865;DHT22;67061;48.524;9.040;2023-03-05T12:13:18;4.60;71.70
77865;DHT22;67061;48.524;9.040;2023-03-05T12:16:08;4.70;71.20
77865;DHT22;67061;48.524;9.040;2023-03-05T12:18:46;4.70;69.80
77865;DHT22;67061;48.524;9.040;2023-03-05T12:21:27;4.60;70.00
77865;DHT22;67061;48.524;9.040;2023-03-05T12:23:59;4.60;69.70
77865;DHT22;67061;48.524;9.040;2023-03-05T12:29:42;4.50;70.60
77865;DHT22;67061;48.524;9.040;2023-03-05T12:35:33;4.40;71.70
77865;DHT22;67061;48.524;9.040;2023-03-05T12:40:52;4.50;71.40
77865;DHT22;67061;48.524;9.040;2023-03-05T12:43:30;4.50;70.90
77865;DHT22;67061;48.524;9.040;2023-03-05T12:46:22;4.50;70.70
77865;DHT22;67061;48.524;9.040;2023-03-05T12:48:50;4.50;70.70
77865;DHT22;67061;48.524;9.040;2023-03-05T12:51:34;4.50;70.60
77865;DHT22;67061;48.524;9.040;2023-03-05T12:54:36;4.50;70.60
77865;DHT22;67061;48.524;9.040;2023-03-05T12:57:12;4.60;70.70
77865;DHT22;67061;48.524;9.040;2023-03-05T12:59:47;4.50;70.30
77865;DHT22;67061;48.524;9.040;2023-03-05T13:02:21;4.50;71.00
77865;DHT22;67061;48.524;9.040;2023-03-05T13:04:49;4.60;70.60
77865;DHT22;67061;48.524;9.040;2023-03-05T13:07:17;4.60;69.60
77865;DHT22;67061;48.524;9.040;2023-03-05T13:09:52;4.60;69.70
77865;DHT22;67061;48.524;9.040;2023-03-05T13:12:21;4.70;69.30
77865;DHT22;67061;48.524;9.040;2023-03-05T13:14:56;4.60;68.80
77865;DHT22;67061;48.524;9.040;2023-03-05T13:17:27;4.50;70.00
77865;DHT22;67061;48.524;9.040;2023-03-05T13:19:55;4.50;70.80
77865;DHT22;67061;48.524;9.040;2023-03-05T13:22:22;4.20;72.60
77865;DHT22;67061;48.524;9.040;2023-03-05T13:25:05;4.00;73.40
77865;DHT22;67061;48.524;9.040;2023-03-05T13:27:37;4.00;74.10
77865;DHT22;67061;48.524;9.040;2023-03-05T13:30:18;4.00;74.40
77865;DHT22;67061;48.524;9.040;2023-03-05T13:32:49;4.00;74.60
77865;DHT22;67061;48.524;9.040;2023-03-05T13:35:16;3.90;74.80
77865;DHT22;67061;48.524;9.040;2023-03-05T13:37:44;3.70;75.40
77865;DHT22;67061;48.524;9.040;2023-03-05T13:40:20;3.60;75.80
77865;DHT22;67061;48.524;9.040;2023-03-05T13:42:47;3.50;76.10
77865;DHT22;67061;48.524;9.040;2023-03-05T13:45:23;3.60;76.00
77865;DHT22;67061;48.524;9.040;2023-03-05T13:47:52;3.60;75.90
77865;DHT22;67061;48.524;9.040;2023-03-05T13:50:23;3.70;75.10
77865;DHT22;67061;48.524;9.040;2023-03-05T13:52:50;3.70;74.80
77865;DHT22;67061;48.524;9.040;2023-03-05T13:55:19;3.70;75.10
77865;DHT22;67061;48.524;9.040;2023-03-05T13:57:47;3.60;75.20
77865;DHT22;67061;48.524;9.040;2023-03-05T14:00:30;3.50;75.40
77865;DHT22;67061;48.524;9.040;2023-03-05T14:03:00;3.50;76.20
77865;DHT22;67061;48.524;9.040;2023-03-05T14:05:28;3.50;76.50
77865;DHT22;67061;48.524;9.040;2023-03-05T14:07:57;3.40;76.80
77865;DHT22;67061;48.524;9.040;2023-03-05T14:10:32;3.40;76.70
77865;DHT22;67061;48.524;9.040;2023-03-05T14:13:02;3.30;77.00
77865;DHT22;67061;48.524;9.040;2023-03-05T14:15:31;3.30;77.20
77865;DHT22;67061;48.524;9.040;2023-03-05T14:18:16;3.40;77.50
77865;DHT22;67061;48.524;9.040;2023-03-05T14:20:58;3.50;77.20
77865;DHT22;67061;48.524;9.040;2023-03-05T14:23:33;3.30;77.40
77865;DHT22;67061;48.524;9.040;2023-03-05T14:26:27;3.40;77.60
77865;DHT22;67061;48.524;9.040;2023-03-05T14:28:58;3.50;77.40
77865;DHT22;67061;48.524;9.040;2023-03-05T14:31:27;3.50;77.50
77865;DHT22;67061;48.524;9.040;2023-03-05T14:33:58;3.50;77.30
77865;DHT22;67061;48.524;9.040;2023-03-05T14:36:27;3.60;77.10
77865;DHT22;67061;48.524;9.040;2023-03-05T14:38:55;3.60;76.80
77865;DHT22;67061;48.524;9.040;2023-03-05T14:41:37;3.60;76.70
77865;DHT22;67061;48.524;9.040;2023-03-05T14:44:11;3.50;76.90
77865;DHT22;67061;48.524;9.040;2023-03-05T14:46:39;3.60;76.90
77865;DHT22;67061;48.524;9.040;2023-03-05T14:49:06;3.60;76.70
77865;DHT22;67061;48.524;9.040;2023-03-05T14:51:37;3.60;76.80
77865;DHT22;67061;48.524;9.040;2023-03-05T14:54:04;3.60;76.60
77865;DHT22;67061;48.524;9.040;2023-03-05T14:56:33;3.70;76.20
77865;DHT22;67061;48.524;9.040;2023-03-05T14:59:00;3.70;76.70
77865;DHT22;67061;48.524;9.040;2023-03-05T15:01:27;3.80;76.10
77865;DHT22;67061;48.524;9.040;2023-03-05T15:03:54;3.70;76.00
77865;DHT22;67061;48.524;9.040;2023-03-05T15:06:26;3.70;76.00
77865;DHT22;67061;48.524;9.040;2023-03-05T15:08:58;3.70;76.20
77865;DHT22;67061;48.524;9.040;2023-03-05T15:11:25;3.70;76.00
77865;DHT22;67061;48.524;9.040;2023-03-05T15:13:56;3.80;75.80
77865;DHT22;67061;48.524;9.040;2023-03-05T15:16:23;3.70;75.30
77865;DHT22;67061;48.524;9.040;2023-03-05T15:18:50;3.70;75.30
77865;DHT22;67061;48.524;9.040;2023-03-05T15:21:17;3.80;75.50
77865;DHT22;67061;48.524;9.040;2023-03-05T15:23:44;3.80;75.50
77865;DHT22;67061;48.524;9.040;2023-03-05T15:26:13;3.90;75.80
77865;DHT22;67061;48.524;9.040;2023-03-05T15:28:42;3.90;75.20
77865;DHT22;67061;48.524;9.040;2023-03-05T15:31:10;3.90;75.00
77865;DHT22;67061;48.524;9.040;2023-03-05T15:33:37;3.90;74.90
77865;DHT22;67061;48.524;9.040;2023-03-05T15:36:07;3.90;74.30
77865;DHT22;67061;48.524;9.040;2023-03-05T15:38:34;3.90;74.80
77865;DHT22;67061;48.524;9.040;2023-03-05T15:41:03;3.90;75.00
77865;DHT22;67061;48.524;9.040;2023-03-05T15:43:30;3.70;75.40
77865;DHT22;67061;48.524;9.040;2023-03-05T15:45:57;3.70;75.40
77865;DHT22;67061;48.524;9.040;2023-03-05T15:48:25;3.70;75.80
77865;DHT22;67061;48.524;9.040;2023-03-05T15:50:52;3.70;75.40
77865;DHT22;67061;48.524;9.040;2023-03-05T15:53:19;3.70;75.50
77865;DHT22;67061;48.524;9.040;2023-03-05T15:55:47;3.70;75.70
77865;DHT22;67061;48.524;9.040;2023-03-05T15:58:15;3.70;75.70
77865;DHT22;67061;48.524;9.040;2023-03-05T16:00:43;3.70;75.90
77865;DHT22;67061;48.524;9.040;2023-03-05T16:03:11;3.70;75.70
77865;DHT22;67061;48.524;9.040;2023-03-05T16:05:40;3.70;75.30
77865;DHT22;67061;48.524;9.040;2023-03-05T16:08:07;3.70;75.40
77865;DHT22;67061;48.524;9.040;2023-03-05T16:10:35;3.70;75.50
77865;DHT22;67061;48.524;9.040;2023-03-05T16:13:08;3.70;75.90
77865;DHT22;67061;48.524;9.040;2023-03-05T16:15:37;3.70;74.70